sensor_id;sensor_type;location;lat;lon;timestamp;temperature;humidity
69382;DHT22;56560;50.692;12.844;2023-02-02T00:01:31;2.20;86.80
69382;DHT22;56560;50.692;12.844;2023-02-02T00:03:58;2.30;86.60
69382;DHT22;56560;50.692;12.844;2023-02-02T00:06:25;2.20;86.60
69382;DHT22;56560;50.692;12.844;2023-02-02T00:08:51;2.20;86.30
69382;DHT22;56560;50.692;12.844;2023-02-02T00:11:18;2.20;86.20
69382;DHT22;56560;50.692;12.844;2023-02-02T00:13:44;2.20;86.10
69382;DHT22;56560;50.692;12.844;2023-02-02T00:18:52;2.10;86.60
69382;DHT22;56560;50.692;12.844;2023-02-02T00:21:17;2.10;86.90
69382;DHT22;56560;50.692;12.844;2023-02-02T00:23:43;2.10;87.20
69382;DHT22;56560;50.692;12.844;2023-02-02T00:26:08;2.20;86.90
69382;DHT22;56560;50.692;12.844;2023-02-02T00:28:34;2.20;86.40
69382;DHT22;56560;50.692;12.844;2023-02-02T00:31:00;2.30;86.40
69382;DHT22;56560;50.692;12.844;2023-02-02T00:33:25;2.30;86.40
69382;DHT22;56560;50.692;12.844;2023-02-02T00:35:52;2.30;86.10
69382;DHT22;56560;50.692;12.844;2023-02-02T00:38:17;2.30;86.30
69382;DHT22;56560;50.692;12.844;2023-02-02T00:40:43;2.20;86.20
69382;DHT22;56560;50.692;12.844;2023-02-02T00:43:09;2.10;86.60
69382;DHT22;56560;50.692;12.844;2023-02-02T00:45:38;2.10;86.40
69382;DHT22;56560;50.692;12.844;2023-02-02T00:48:04;2.20;86.00
69382;DHT22;56560;50.692;12.844;2023-02-02T00:50:30;2.20;86.00
69382;DHT22;56560;50.692;12.844;2023-02-02T00:52:56;2.30;85.60
69382;DHT22;56560;50.692;12.844;2023-02-02T00:55:25;2.30;85.40
69382;DHT22;56560;50.692;12.844;2023-02-02T00:57:51;2.30;85.40
69382;DHT22;56560;50.692;12.844;2023-02-02T01:00:19;2.40;85.30
69382;DHT22;56560;50.692;12.844;2023-02-02T01:02:48;2.30;85.00
69382;DHT22;56560;50.692;12.844;2023-02-02T01:05:14;2.30;85.00
69382;DHT22;56560;50.692;12.844;2023-02-02T01:07:40;2.40;85.00
69382;DHT22;56560;50.692;12.844;2023-02-02T01:10:07;2.30;84.90
69382;DHT22;56560;50.692;12.844;2023-02-02T01:12:33;2.40;84.50
69382;DHT22;56560;50.692;12.844;2023-02-02T01:15:00;2.40;84.60
69382;DHT22;56560;50.692;12.844;2023-02-02T01:17:25;2.30;84.50
69382;DHT22;56560;50.692;12.844;2023-02-02T01:19:51;2.40;84.80
69382;DHT22;56560;50.692;12.844;2023-02-02T01:22:17;2.40;84.90
69382;DHT22;56560;50.692;12.844;2023-02-02T01:24:42;2.40;84.80
69382;DHT22;56560;50.692;12.844;2023-02-02T01:27:08;2.40;84.00
69382;DHT22;56560;50.692;12.844;2023-02-02T01:29:33;2.50;83.60
69382;DHT22;56560;50.692;12.844;2023-02-02T01:31:59;2.50;83.60
69382;DHT22;56560;50.692;12.844;2023-02-02T01:34:25;2.50;82.70
69382;DHT22;56560;50.692;12.844;2023-02-02T01:36:50;2.40;83.00
69382;DHT22;56560;50.692;12.844;2023-02-02T01:39:16;2.40;83.30
69382;DHT22;56560;50.692;12.844;2023-02-02T01:41:41;2.40;83.70
69382;DHT22;56560;50.692;12.844;2023-02-02T01:47:10;2.40;83.30
69382;DHT22;56560;50.692;12.844;2023-02-02T01:49:37;2.40;83.60
69382;DHT22;56560;50.692;12.844;2023-02-02T01:52:04;2.30;83.50
69382;DHT22;56560;50.692;12.844;2023-02-02T01:54:31;2.40;83.80
69382;DHT22;56560;50.692;12.844;2023-02-02T01:57:04;2.30;83.90
69382;DHT22;56560;50.692;12.844;2023-02-02T01:59:31;2.30;84.00
69382;DHT22;56560;50.692;12.844;2023-02-02T02:01:57;2.30;83.90
69382;DHT22;56560;50.692;12.844;2023-02-02T02:04:24;2.30;84.00
69382;DHT22;56560;50.692;12.844;2023-02-02T02:06:51;2.30;84.10
69382;DHT22;56560;50.692;12.844;2023-02-02T02:09:18;2.30;83.80
69382;DHT22;56560;50.692;12.844;2023-02-02T02:11:43;2.40;83.50
69382;DHT22;56560;50.692;12.844;2023-02-02T02:14:10;2.30;83.50
69382;DHT22;56560;50.692;12.844;2023-02-02T02:26:39;2.30;83.20
69382;DHT22;56560;50.692;12.844;2023-02-02T02:37:17;2.40;82.00
69382;DHT22;56560;50.692;12.844;2023-02-02T02:42:25;2.40;81.40
69382;DHT22;56560;50.692;12.844;2023-02-02T02:44:52;2.40;81.20
69382;DHT22;56560;50.692;12.844;2023-02-02T02:47:18;2.40;81.70
69382;DHT22;56560;50.692;12.844;2023-02-02T02:49:46;2.40;81.40
69382;DHT22;56560;50.692;12.844;2023-02-02T02:52:12;2.40;81.30
69382;DHT22;56560;50.692;12.844;2023-02-02T02:54:47;2.40;81.50
69382;DHT22;56560;50.692;12.844;2023-02-02T03:03:30;2.40;80.10
69382;DHT22;56560;50.692;12.844;2023-02-02T03:08:44;2.40;80.40
69382;DHT22;56560;50.692;12.844;2023-02-02T03:11:13;2.40;79.90
69382;DHT22;56560;50.692;12.844;2023-02-02T03:13:40;2.40;80.00
69382;DHT22;56560;50.692;12.844;2023-02-02T03:16:07;2.40;79.70
69382;DHT22;56560;50.692;12.844;2023-02-02T03:18:33;2.50;79.60
69382;DHT22;56560;50.692;12.844;2023-02-02T03:21:00;2.50;79.30
69382;DHT22;56560;50.692;12.844;2023-02-02T03:23:26;2.50;79.20
69382;DHT22;56560;50.692;12.844;2023-02-02T03:25:52;2.50;79.40
69382;DHT22;56560;50.692;12.844;2023-02-02T03:28:18;2.60;79.30
69382;DHT22;56560;50.692;12.844;2023-02-02T03:30:45;2.50;79.10
69382;DHT22;56560;50.692;12.844;2023-02-02T03:33:12;2.50;79.00
69382;DHT22;56560;50.692;12.844;2023-02-02T03:35:38;2.60;79.30
69382;DHT22;56560;50.692;12.844;2023-02-02T03:38:04;2.60;79.20
69382;DHT22;56560;50.692;12.844;2023-02-02T03:40:29;2.50;78.90
69382;DHT22;56560;50.692;12.844;2023-02-02T03:42:55;2.60;78.50
69382;DHT22;56560;50.692;12.844;2023-02-02T03:45:21;2.60;78.50
69382;DHT22;56560;50.692;12.844;2023-02-02T03:47:47;2.60;78.10
69382;DHT22;56560;50.692;12.844;2023-02-02T03:50:13;2.50;78.70
69382;DHT22;56560;50.692;12.844;2023-02-02T03:52:38;2.50;78.10
69382;DHT22;56560;50.692;12.844;2023-02-02T03:55:05;2.50;78.60
69382;DHT22;56560;50.692;12.844;2023-02-02T03:57:30;2.50;79.20
69382;DHT22;56560;50.692;12.844;2023-02-02T03:59:56;2.50;78.80
69382;DHT22;56560;50.692;12.844;2023-02-02T04:02:22;2.50;78.70
69382;DHT22;56560;50.692;12.844;2023-02-02T04:04:47;2.50;78.70
69382;DHT22;56560;50.692;12.844;2023-02-02T04:07:13;2.60;78.50
69382;DHT22;56560;50.692;12.844;2023-02-02T04:09:39;2.50;79.00
69382;DHT22;56560;50.692;12.844;2023-02-02T04:12:04;2.50;78.90
69382;DHT22;56560;50.692;12.844;2023-02-02T04:14:30;2.50;78.80
69382;DHT22;56560;50.692;12.844;2023-02-02T04:16:56;2.50;78.90
69382;DHT22;56560;50.692;12.844;2023-02-02T04:19:21;2.50;78.80
69382;DHT22;56560;50.692;12.844;2023-02-02T04:21:47;2.50;79.20
69382;DHT22;56560;50.692;12.844;2023-02-02T04:24:13;2.50;79.00
69382;DHT22;56560;50.692;12.844;2023-02-02T04:26:39;2.60;78.90
69382;DHT22;56560;50.692;12.844;2023-02-02T04:29:05;2.60;78.70
69382;DHT22;56560;50.692;12.844;2023-02-02T04:31:31;2.60;78.90
69382;DHT22;56560;50.692;12.844;2023-02-02T04:33:57;2.60;78.50
69382;DHT22;56560;50.692;12.844;2023-02-02T04:36:23;2.60;79.00
69382;DHT22;56560;50.692;12.844;2023-02-02T04:38:53;2.60;78.20
69382;DHT22;56560;50.692;12.844;2023-02-02T04:41:20;2.60;78.10
69382;DHT22;56560;50.692;12.844;2023-02-02T04:43:46;2.60;78.40
69382;DHT22;56560;50.692;12.844;2023-02-02T04:46:12;2.60;78.00
69382;DHT22;56560;50.692;12.844;2023-02-02T04:48:38;2.60;78.40
69382;DHT22;56560;50.692;12.844;2023-02-02T04:51:08;2.70;78.40
69382;DHT22;56560;50.692;12.844;2023-02-02T04:53:34;2.70;78.30
69382;DHT22;56560;50.692;12.844;2023-02-02T04:56:12;2.70;77.30
69382;DHT22;56560;50.692;12.844;2023-02-02T04:58:38;2.50;77.80
69382;DHT22;56560;50.692;12.844;2023-02-02T05:01:09;2.60;78.50
69382;DHT22;56560;50.692;12.844;2023-02-02T05:03:34;2.50;78.60
69382;DHT22;56560;50.692;12.844;2023-02-02T05:06:04;2.50;78.40
69382;DHT22;56560;50.692;12.844;2023-02-02T05:08:29;2.50;78.30
69382;DHT22;56560;50.692;12.844;2023-02-02T05:10:55;2.50;78.60
69382;DHT22;56560;50.692;12.844;2023-02-02T05:13:21;2.50;78.10
69382;DHT22;56560;50.692;12.844;2023-02-02T05:15:47;2.50;78.30
69382;DHT22;56560;50.692;12.844;2023-02-02T05:18:13;2.50;78.40
69382;DHT22;56560;50.692;12.844;2023-02-02T05:20:38;2.50;78.20
69382;DHT22;56560;50.692;12.844;2023-02-02T05:23:04;2.50;78.70
69382;DHT22;56560;50.692;12.844;2023-02-02T05:25:30;2.50;78.40
69382;DHT22;56560;50.692;12.844;2023-02-02T05:27:55;2.60;78.50
69382;DHT22;56560;50.692;12.844;2023-02-02T05:30:21;2.60;78.40
69382;DHT22;56560;50.692;12.844;2023-02-02T05:32:47;2.60;77.50
69382;DHT22;56560;50.692;12.844;2023-02-02T05:35:12;2.60;78.20
69382;DHT22;56560;50.692;12.844;2023-02-02T05:37:38;2.60;78.30
69382;DHT22;56560;50.692;12.844;2023-02-02T05:40:04;2.60;77.40
69382;DHT22;56560;50.692;12.844;2023-02-02T05:42:30;2.60;77.70
69382;DHT22;56560;50.692;12.844;2023-02-02T05:44:55;2.60;77.80
69382;DHT22;56560;50.692;12.844;2023-02-02T05:47:21;2.60;77.90
69382;DHT22;56560;50.692;12.844;2023-02-02T05:49:48;2.60;77.80
69382;DHT22;56560;50.692;12.844;2023-02-02T05:52:16;2.50;77.60
69382;DHT22;56560;50.692;12.844;2023-02-02T05:54:42;2.60;77.80
69382;DHT22;56560;50.692;12.844;2023-02-02T05:57:08;2.60;77.50
69382;DHT22;56560;50.692;12.844;2023-02-02T05:59:34;2.60;76.70
69382;DHT22;56560;50.692;12.844;2023-02-02T06:01:59;2.60;77.60
69382;DHT22;56560;50.692;12.844;2023-02-02T06:04:25;2.60;77.40
69382;DHT22;56560;50.692;12.844;2023-02-02T06:06:51;2.60;77.60
69382;DHT22;56560;50.692;12.844;2023-02-02T06:09:16;2.60;77.70
69382;DHT22;56560;50.692;12.844;2023-02-02T06:11:43;2.60;77.40
69382;DHT22;56560;50.692;12.844;2023-02-02T06:14:09;2.60;77.60
69382;DHT22;56560;50.692;12.844;2023-02-02T06:16:34;2.60;77.40
69382;DHT22;56560;50.692;12.844;2023-02-02T06:19:00;2.70;77.70
69382;DHT22;56560;50.692;12.844;2023-02-02T06:21:25;2.60;77.30
69382;DHT22;56560;50.692;12.844;2023-02-02T06:23:55;2.70;76.70
69382;DHT22;56560;50.692;12.844;2023-02-02T06:26:21;2.70;77.20
69382;DHT22;56560;50.692;12.844;2023-02-02T06:28:48;2.70;77.00
69382;DHT22;56560;50.692;12.844;2023-02-02T06:31:14;2.60;76.50
69382;DHT22;56560;50.692;12.844;2023-02-02T06:33:44;2.70;76.90
69382;DHT22;56560;50.692;12.844;2023-02-02T06:36:10;2.70;76.70
69382;DHT22;56560;50.692;12.844;2023-02-02T06:38:35;2.60;76.70
69382;DHT22;56560;50.692;12.844;2023-02-02T06:41:02;2.70;76.70
69382;DHT22;56560;50.692;12.844;2023-02-02T06:43:28;2.70;76.80
69382;DHT22;56560;50.692;12.844;2023-02-02T06:45:56;2.70;76.90
69382;DHT22;56560;50.692;12.844;2023-02-02T06:48:22;2.70;77.00
69382;DHT22;56560;50.692;12.844;2023-02-02T06:50:48;2.70;76.80
69382;DHT22;56560;50.692;12.844;2023-02-02T06:53:13;2.70;76.80
69382;DHT22;56560;50.692;12.844;2023-02-02T06:55:40;2.80;76.50
69382;DHT22;56560;50.692;12.844;2023-02-02T06:58:05;2.80;76.50
69382;DHT22;56560;50.692;12.844;2023-02-02T07:00:31;2.80;76.50
69382;DHT22;56560;50.692;12.844;2023-02-02T07:02:57;2.80;76.60
69382;DHT22;56560;50.692;12.844;2023-02-02T07:05:23;2.80;76.60
69382;DHT22;56560;50.692;12.844;2023-02-02T07:07:50;2.80;76.70
69382;DHT22;56560;50.692;12.844;2023-02-02T07:10:16;2.80;76.90
69382;DHT22;56560;50.692;12.844;2023-02-02T07:12:43;2.90;75.70
69382;DHT22;56560;50.692;12.844;2023-02-02T07:15:09;2.90;76.60
69382;DHT22;56560;50.692;12.844;2023-02-02T07:17:35;2.90;76.20
69382;DHT22;56560;50.692;12.844;2023-02-02T07:20:00;2.90;76.50
69382;DHT22;56560;50.692;12.844;2023-02-02T07:22:26;2.90;76.10
69382;DHT22;56560;50.692;12.844;2023-02-02T07:24:51;2.90;76.20
69382;DHT22;56560;50.692;12.844;2023-02-02T07:27:17;3.00;76.70
69382;DHT22;56560;50.692;12.844;2023-02-02T07:29:43;3.10;76.50
69382;DHT22;56560;50.692;12.844;2023-02-02T07:32:09;3.10;76.30
69382;DHT22;56560;50.692;12.844;2023-02-02T07:34:38;3.10;76.80
69382;DHT22;56560;50.692;12.844;2023-02-02T07:37:04;3.20;76.50
69382;DHT22;56560;50.692;12.844;2023-02-02T07:39:29;3.20;76.30
69382;DHT22;56560;50.692;12.844;2023-02-02T07:41:55;3.20;75.60
69382;DHT22;56560;50.692;12.844;2023-02-02T07:44:21;3.30;77.90
69382;DHT22;56560;50.692;12.844;2023-02-02T07:46:46;3.30;75.50
69382;DHT22;56560;50.692;12.844;2023-02-02T07:49:14;3.30;75.40
69382;DHT22;56560;50.692;12.844;2023-02-02T07:51:41;3.40;75.00
69382;DHT22;56560;50.692;12.844;2023-02-02T07:54:07;3.40;75.40
69382;DHT22;56560;50.692;12.844;2023-02-02T07:56:34;3.40;75.80
69382;DHT22;56560;50.692;12.844;2023-02-02T07:58:59;3.40;75.70
69382;DHT22;56560;50.692;12.844;2023-02-02T08:01:26;3.40;75.90
69382;DHT22;56560;50.692;12.844;2023-02-02T08:03:54;3.50;74.60
69382;DHT22;56560;50.692;12.844;2023-02-02T08:06:22;3.40;75.20
69382;DHT22;56560;50.692;12.844;2023-02-02T08:08:49;3.30;75.50
69382;DHT22;56560;50.692;12.844;2023-02-02T08:11:16;3.30;76.10
69382;DHT22;56560;50.692;12.844;2023-02-02T08:13:43;3.30;76.20
69382;DHT22;56560;50.692;12.844;2023-02-02T08:16:10;3.40;75.40
69382;DHT22;56560;50.692;12.844;2023-02-02T08:18:37;3.40;75.50
69382;DHT22;56560;50.692;12.844;2023-02-02T08:21:04;3.60;75.60
69382;DHT22;56560;50.692;12.844;2023-02-02T08:23:30;3.60;75.40
69382;DHT22;56560;50.692;12.844;2023-02-02T08:28:39;3.80;75.20
69382;DHT22;56560;50.692;12.844;2023-02-02T08:31:07;3.90;74.70
69382;DHT22;56560;50.692;12.844;2023-02-02T08:33:33;3.90;74.10
69382;DHT22;56560;50.692;12.844;2023-02-02T08:35:59;4.00;73.60
69382;DHT22;56560;50.692;12.844;2023-02-02T08:38:25;4.10;73.10
69382;DHT22;56560;50.692;12.844;2023-02-02T08:40:50;4.10;73.50
69382;DHT22;56560;50.692;12.844;2023-02-02T08:43:16;4.10;73.40
69382;DHT22;56560;50.692;12.844;2023-02-02T08:45:42;4.20;72.80
69382;DHT22;56560;50.692;12.844;2023-02-02T08:48:09;4.10;73.30
69382;DHT22;56560;50.692;12.844;2023-02-02T08:50:34;4.10;73.60
69382;DHT22;56560;50.692;12.844;2023-02-02T08:53:00;4.20;73.40
69382;DHT22;56560;50.692;12.844;2023-02-02T08:55:25;4.20;73.40
69382;DHT22;56560;50.692;12.844;2023-02-02T08:57:51;4.20;73.10
69382;DHT22;56560;50.692;12.844;2023-02-02T09:00:17;4.30;73.30
69382;DHT22;56560;50.692;12.844;2023-02-02T09:02:43;4.20;73.70
69382;DHT22;56560;50.692;12.844;2023-02-02T09:05:08;4.30;73.30
69382;DHT22;56560;50.692;12.844;2023-02-02T09:07:34;4.50;72.50
69382;DHT22;56560;50.692;12.844;2023-02-02T09:10:00;4.60;72.30
69382;DHT22;56560;50.692;12.844;2023-02-02T09:12:25;4.70;72.30
69382;DHT22;56560;50.692;12.844;2023-02-02T09:14:51;4.80;71.30
69382;DHT22;56560;50.692;12.844;2023-02-02T09:17:17;4.90;71.40
69382;DHT22;56560;50.692;12.844;2023-02-02T09:19:42;4.90;71.40
69382;DHT22;56560;50.692;12.844;2023-02-02T09:22:08;4.80;72.30
69382;DHT22;56560;50.692;12.844;2023-02-02T09:24:34;4.70;72.00
69382;DHT22;56560;50.692;12.844;2023-02-02T09:26:59;4.70;72.20
69382;DHT22;56560;50.692;12.844;2023-02-02T09:29:25;4.80;72.00
69382;DHT22;56560;50.692;12.844;2023-02-02T09:31:50;4.90;71.50
69382;DHT22;56560;50.692;12.844;2023-02-02T09:34:16;4.90;71.30
69382;DHT22;56560;50.692;12.844;2023-02-02T09:36:42;5.10;71.50
69382;DHT22;56560;50.692;12.844;2023-02-02T09:39:10;5.30;70.60
69382;DHT22;56560;50.692;12.844;2023-02-02T09:44:22;5.70;69.80
69382;DHT22;56560;50.692;12.844;2023-02-02T09:49:36;6.00;68.30
69382;DHT22;56560;50.692;12.844;2023-02-02T09:52:28;6.10;68.10
69382;DHT22;56560;50.692;12.844;2023-02-02T09:54:58;5.90;67.70
69382;DHT22;56560;50.692;12.844;2023-02-02T09:57:30;5.70;68.00
69382;DHT22;56560;50.692;12.844;2023-02-02T09:59:57;5.80;68.00
69382;DHT22;56560;50.692;12.844;2023-02-02T10:02:38;5.80;68.30
69382;DHT22;56560;50.692;12.844;2023-02-02T10:05:14;5.90;68.70
69382;DHT22;56560;50.692;12.844;2023-02-02T10:07:44;5.90;68.30
69382;DHT22;56560;50.692;12.844;2023-02-02T10:10:21;5.80;67.80
69382;DHT22;56560;50.692;12.844;2023-02-02T10:13:01;5.80;67.60
69382;DHT22;56560;50.692;12.844;2023-02-02T10:15:49;5.70;68.60
69382;DHT22;56560;50.692;12.844;2023-02-02T10:18:39;5.80;68.70
69382;DHT22;56560;50.692;12.844;2023-02-02T10:21:59;5.70;68.70
69382;DHT22;56560;50.692;12.844;2023-02-02T10:24:23;5.60;69.10
69382;DHT22;56560;50.692;12.844;2023-02-02T10:27:02;5.70;68.40
69382;DHT22;56560;50.692;12.844;2023-02-02T10:29:36;5.70;68.70
69382;DHT22;56560;50.692;12.844;2023-02-02T10:32:31;5.70;68.60
69382;DHT22;56560;50.692;12.844;2023-02-02T10:38:50;6.00;68.40
69382;DHT22;56560;50.692;12.844;2023-02-02T10:40:53;6.10;68.00
69382;DHT22;56560;50.692;12.844;2023-02-02T10:46:45;5.90;68.30
69382;DHT22;56560;50.692;12.844;2023-02-02T10:49:28;6.10;67.90
69382;DHT22;56560;50.692;12.844;2023-02-02T10:54:51;6.00;68.10
69382;DHT22;56560;50.692;12.844;2023-02-02T10:57:25;6.10;67.20
69382;DHT22;56560;50.692;12.844;2023-02-02T11:00:04;6.00;68.20
69382;DHT22;56560;50.692;12.844;2023-02-02T11:02:31;6.10;67.30
69382;DHT22;56560;50.692;12.844;2023-02-02T11:04:57;6.20;67.80
69382;DHT22;56560;50.692;12.844;2023-02-02T11:07:42;6.20;66.60
69382;DHT22;56560;50.692;12.844;2023-02-02T11:10:08;6.10;67.00
69382;DHT22;56560;50.692;12.844;2023-02-02T11:12:36;6.10;66.90
69382;DHT22;56560;50.692;12.844;2023-02-02T11:15:08;6.10;66.70
69382;DHT22;56560;50.692;12.844;2023-02-02T11:17:47;6.00;66.50
69382;DHT22;56560;50.692;12.844;2023-02-02T11:20:42;5.90;67.30
69382;DHT22;56560;50.692;12.844;2023-02-02T11:23:16;5.70;67.50
69382;DHT22;56560;50.692;12.844;2023-02-02T11:25:43;5.60;67.80
69382;DHT22;56560;50.692;12.844;2023-02-02T11:28:11;5.50;67.80
69382;DHT22;56560;50.692;12.844;2023-02-02T11:30:46;5.40;67.50
69382;DHT22;56560;50.692;12.844;2023-02-02T11:33:33;5.30;68.70
69382;DHT22;56560;50.692;12.844;2023-02-02T11:36:00;5.40;67.10
69382;DHT22;56560;50.692;12.844;2023-02-02T11:38:27;5.50;67.10
69382;DHT22;56560;50.692;12.844;2023-02-02T11:41:02;5.50;66.80
69382;DHT22;56560;50.692;12.844;2023-02-02T11:43:32;5.60;66.60
69382;DHT22;56560;50.692;12.844;2023-02-02T11:46:12;5.70;65.50
69382;DHT22;56560;50.692;12.844;2023-02-02T11:48:56;5.70;66.90
69382;DHT22;56560;50.692;12.844;2023-02-02T11:51:24;5.70;65.90
69382;DHT22;56560;50.692;12.844;2023-02-02T11:54:03;5.80;65.70
69382;DHT22;56560;50.692;12.844;2023-02-02T11:56:32;5.80;66.00
69382;DHT22;56560;50.692;12.844;2023-02-02T11:58:59;5.70;65.90
69382;DHT22;56560;50.692;12.844;2023-02-02T12:01:36;5.70;65.70
69382;DHT22;56560;50.692;12.844;2023-02-02T12:06:43;5.70;66.70
69382;DHT22;56560;50.692;12.844;2023-02-02T12:09:18;5.70;66.70
69382;DHT22;56560;50.692;12.844;2023-02-02T12:23:32;6.10;66.30
69382;DHT22;56560;50.692;12.844;2023-02-02T12:31:59;5.80;66.90
69382;DHT22;56560;50.692;12.844;2023-02-02T12:43:38;5.60;67.90
69382;DHT22;56560;50.692;12.844;2023-02-02T12:52:21;5.40;69.80
69382;DHT22;56560;50.692;12.844;2023-02-02T13:07:59;5.00;71.10
69382;DHT22;56560;50.692;12.844;2023-02-02T13:10:33;4.90;72.30
69382;DHT22;56560;50.692;12.844;2023-02-02T13:15:51;4.80;73.10
69382;DHT22;56560;50.692;12.844;2023-02-02T13:18:29;4.70;72.60
69382;DHT22;56560;50.692;12.844;2023-02-02T13:21:03;4.70;73.00
69382;DHT22;56560;50.692;12.844;2023-02-02T13:23:36;4.80;73.00
69382;DHT22;56560;50.692;12.844;2023-02-02T13:26:18;4.90;72.90
69382;DHT22;56560;50.692;12.844;2023-02-02T13:29:02;5.00;72.40
69382;DHT22;56560;50.692;12.844;2023-02-02T13:31:34;5.10;71.30
69382;DHT22;56560;50.692;12.844;2023-02-02T13:36:46;5.30;71.70
69382;DHT22;56560;50.692;12.844;2023-02-02T13:39:33;5.30;70.90
69382;DHT22;56560;50.692;12.844;2023-02-02T13:42:01;5.20;71.30
69382;DHT22;56560;50.692;12.844;2023-02-02T13:44:37;5.00;71.80
69382;DHT22;56560;50.692;12.844;2023-02-02T13:47:14;4.90;72.60
69382;DHT22;56560;50.692;12.844;2023-02-02T13:49:44;5.00;73.00
69382;DHT22;56560;50.692;12.844;2023-02-02T14:00:53;5.20;71.20
69382;DHT22;56560;50.692;12.844;2023-02-02T14:03:41;5.00;72.40
69382;DHT22;56560;50.692;12.844;2023-02-02T14:06:14;4.90;73.30
69382;DHT22;56560;50.692;12.844;2023-02-02T14:08:57;4.90;73.60
69382;DHT22;56560;50.692;12.844;2023-02-02T14:11:36;4.90;73.00
69382;DHT22;56560;50.692;12.844;2023-02-02T14:14:17;4.80;73.90
69382;DHT22;56560;50.692;12.844;2023-02-02T14:17:52;4.80;74.00
69382;DHT22;56560;50.692;12.844;2023-02-02T14:19:56;4.60;74.30
69382;DHT22;56560;50.692;12.844;2023-02-02T14:22:45;4.60;74.70
69382;DHT22;56560;50.692;12.844;2023-02-02T14:28:09;4.70;73.70
69382;DHT22;56560;50.692;12.844;2023-02-02T14:30:36;4.80;74.10
69382;DHT22;56560;50.692;12.844;2023-02-02T14:33:38;4.90;73.70
69382;DHT22;56560;50.692;12.844;2023-02-02T14:36:12;5.00;73.40
69382;DHT22;56560;50.692;12.844;2023-02-02T14:38:57;5.00;71.90
69382;DHT22;56560;50.692;12.844;2023-02-02T14:41:58;4.90;72.00
69382;DHT22;56560;50.692;12.844;2023-02-02T14:45:27;4.80;71.90
69382;DHT22;56560;50.692;12.844;2023-02-02T14:47:59;4.60;73.70
69382;DHT22;56560;50.692;12.844;2023-02-02T14:56:01;4.40;74.40
69382;DHT22;56560;50.692;12.844;2023-02-02T14:58:38;4.30;75.60
69382;DHT22;56560;50.692;12.844;2023-02-02T15:06:33;4.20;76.10
69382;DHT22;56560;50.692;12.844;2023-02-02T15:14:48;4.10;77.60
69382;DHT22;56560;50.692;12.844;2023-02-02T15:23:01;4.10;78.00
69382;DHT22;56560;50.692;12.844;2023-02-02T15:25:36;4.10;77.80
69382;DHT22;56560;50.692;12.844;2023-02-02T15:28:20;4.10;78.20
69382;DHT22;56560;50.692;12.844;2023-02-02T15:30:55;4.10;78.00
69382;DHT22;56560;50.692;12.844;2023-02-02T15:33:35;4.10;78.10
69382;DHT22;56560;50.692;12.844;2023-02-02T15:38:42;4.00;77.90
69382;DHT22;56560;50.692;12.844;2023-02-02T15:41:31;4.00;78.40
69382;DHT22;56560;50.692;12.844;2023-02-02T15:43:57;3.90;78.00
69382;DHT22;56560;50.692;12.844;2023-02-02T15:46:26;3.90;78.50
69382;DHT22;56560;50.692;12.844;2023-02-02T15:51:49;3.80;78.60
69382;DHT22;56560;50.692;12.844;2023-02-02T15:54:30;3.80;78.80
69382;DHT22;56560;50.692;12.844;2023-02-02T15:56:58;3.90;78.30
69382;DHT22;56560;50.692;12.844;2023-02-02T15:59:27;3.90;78.20
69382;DHT22;56560;50.692;12.844;2023-02-02T16:07:01;3.70;79.20
69382;DHT22;56560;50.692;12.844;2023-02-02T16:09:32;3.70;79.60
69382;DHT22;56560;50.692;12.844;2023-02-02T16:11:58;3.60;80.10
69382;DHT22;56560;50.692;12.844;2023-02-02T16:14:25;3.60;80.40
69382;DHT22;56560;50.692;12.844;2023-02-02T16:16:51;3.60;81.50
69382;DHT22;56560;50.692;12.844;2023-02-02T16:19:18;3.60;80.80
69382;DHT22;56560;50.692;12.844;2023-02-02T16:21:55;3.50;81.00
69382;DHT22;56560;50.692;12.844;2023-02-02T16:24:28;3.50;81.50
69382;DHT22;56560;50.692;12.844;2023-02-02T16:26:57;3.50;81.90
69382;DHT22;56560;50.692;12.844;2023-02-02T16:29:24;3.50;82.00
69382;DHT22;56560;50.692;12.844;2023-02-02T16:31:53;3.50;82.30
69382;DHT22;56560;50.692;12.844;2023-02-02T16:37:13;3.60;82.60
69382;DHT22;56560;50.692;12.844;2023-02-02T16:39:39;3.60;81.90
69382;DHT22;56560;50.692;12.844;2023-02-02T16:42:23;3.60;81.40
69382;DHT22;56560;50.692;12.844;2023-02-02T16:44:49;3.60;80.90
69382;DHT22;56560;50.692;12.844;2023-02-02T16:47:41;3.60;81.00
69382;DHT22;56560;50.692;12.844;2023-02-02T16:55:16;3.40;82.50
69382;DHT22;56560;50.692;12.844;2023-02-02T16:57:43;3.40;82.40
69382;DHT22;56560;50.692;12.844;2023-02-02T17:00:18;3.30;83.30
69382;DHT22;56560;50.692;12.844;2023-02-02T17:02:47;3.40;82.90
69382;DHT22;56560;50.692;12.844;2023-02-02T17:05:21;3.30;82.60
69382;DHT22;56560;50.692;12.844;2023-02-02T17:08:02;3.30;82.60
69382;DHT22;56560;50.692;12.844;2023-02-02T17:10:41;3.30;82.90
69382;DHT22;56560;50.692;12.844;2023-02-02T17:15:56;3.30;82.40
69382;DHT22;56560;50.692;12.844;2023-02-02T17:18:22;3.30;82.70
69382;DHT22;56560;50.692;12.844;2023-02-02T17:20:50;3.30;82.70
69382;DHT22;56560;50.692;12.844;2023-02-02T17:23:26;3.30;82.50
69382;DHT22;56560;50.692;12.844;2023-02-02T17:25:52;3.30;82.80
69382;DHT22;56560;50.692;12.844;2023-02-02T17:28:21;3.30;83.20
69382;DHT22;56560;50.692;12.844;2023-02-02T17:30:50;3.30;82.40
69382;DHT22;56560;50.692;12.844;2023-02-02T17:33:21;3.30;82.70
69382;DHT22;56560;50.692;12.844;2023-02-02T17:35:46;3.30;82.80
69382;DHT22;56560;50.692;12.844;2023-02-02T17:38:14;3.30;82.50
69382;DHT22;56560;50.692;12.844;2023-02-02T17:40:41;3.30;82.90
69382;DHT22;56560;50.692;12.844;2023-02-02T17:43:10;3.20;83.10
69382;DHT22;56560;50.692;12.844;2023-02-02T17:45:36;3.30;82.90
69382;DHT22;56560;50.692;12.844;2023-02-02T17:48:03;3.30;83.30
69382;DHT22;56560;50.692;12.844;2023-02-02T17:50:31;3.30;83.30
69382;DHT22;56560;50.692;12.844;2023-02-02T17:52:57;3.30;83.20
69382;DHT22;56560;50.692;12.844;2023-02-02T17:55:27;3.30;83.60
69382;DHT22;56560;50.692;12.844;2023-02-02T17:57:56;3.30;83.10
69382;DHT22;56560;50.692;12.844;2023-02-02T18:00:24;3.30;83.10
69382;DHT22;56560;50.692;12.844;2023-02-02T18:02:52;3.30;83.60
69382;DHT22;56560;50.692;12.844;2023-02-02T18:05:18;3.30;83.30
69382;DHT22;56560;50.692;12.844;2023-02-02T18:07:44;3.30;83.70
69382;DHT22;56560;50.692;12.844;2023-02-02T18:10:15;3.30;83.40
69382;DHT22;56560;50.692;12.844;2023-02-02T18:12:40;3.30;83.00
69382;DHT22;56560;50.692;12.844;2023-02-02T18:15:10;3.20;83.20
69382;DHT22;56560;50.692;12.844;2023-02-02T18:17:36;3.20;83.60
69382;DHT22;56560;50.692;12.844;2023-02-02T18:20:02;3.20;83.30
69382;DHT22;56560;50.692;12.844;2023-02-02T18:22:28;3.30;82.90
69382;DHT22;56560;50.692;12.844;2023-02-02T18:24:54;3.30;82.90
69382;DHT22;56560;50.692;12.844;2023-02-02T18:27:19;3.20;82.90